createdAt,value
2018-09-24T00:02:05.427Z,98883.66
2018-09-24T00:04:34.528Z,98896.83
2018-09-24T00:07:04.414Z,98896.17
2018-09-24T00:09:33.511Z,98908.52
2018-09-24T00:12:02.738Z,98909.64
2018-09-24T00:14:32.558Z,98920.70
2018-09-24T00:17:01.754Z,98916.56
2018-09-24T00:19:30.933Z,98926.95
2018-09-24T00:22:00.203Z,98925.05
2018-09-24T00:24:29.419Z,98929.80
2018-09-24T00:26:59.051Z,98934.28
2018-09-24T00:29:28.169Z,98938.20
2018-09-24T00:31:57.280Z,98949.81
2018-09-24T00:34:26.378Z,98946.17
2018-09-24T00:36:55.486Z,98955.20
2018-09-24T00:39:25.326Z,98966.43
2018-09-24T00:41:54.467Z,98981.39
2018-09-24T00:44:23.570Z,98982.66
2018-09-24T00:46:52.662Z,98982.45
2018-09-24T00:49:21.834Z,98997.48
2018-09-24T00:51:54.146Z,99004.70
2018-09-24T00:54:23.254Z,99001.64
2018-09-24T00:56:52.413Z,99008.77
2018-09-24T00:59:21.538Z,99008.88
2018-09-24T01:01:50.651Z,99022.67
2018-09-24T01:04:19.755Z,99027.56
2018-09-24T01:06:48.870Z,99028.35
2018-09-24T01:09:18.003Z,99036.09
2018-09-24T01:11:47.116Z,99035.47
2018-09-24T01:14:16.438Z,99038.58
2018-09-24T01:16:45.594Z,99046.42
2018-09-24T01:19:14.716Z,99046.73
2018-09-24T01:21:44.185Z,99041.22
2018-09-24T01:24:13.306Z,99052.40
2018-09-24T01:26:43.211Z,99050.88
2018-09-24T01:29:12.343Z,99056.98
2018-09-24T01:31:41.458Z,99058.55
2018-09-24T01:34:10.559Z,99059.47
2018-09-24T01:36:39.655Z,99057.58
2018-09-24T01:39:09.358Z,99061.55
2018-09-24T01:41:38.503Z,99063.03
2018-09-24T01:44:07.766Z,99066.17
2018-09-24T01:46:36.879Z,99066.83
2018-09-24T01:49:05.974Z,99072.83
2018-09-24T01:51:37.566Z,99070.89
2018-09-24T01:54:07.559Z,99071.48
2018-09-24T01:56:37.243Z,99070.28
2018-09-24T01:59:06.454Z,99070.28
2018-09-24T02:01:40.744Z,99072.59
2018-09-24T02:04:11.016Z,99074.28
2018-09-24T02:06:44.596Z,99077.71
2018-09-24T02:09:14.314Z,99075.66
2018-09-24T02:11:44.711Z,99071.02
2018-09-24T02:14:15.471Z,99074.15
2018-09-24T02:16:47.668Z,99076.14
2018-09-24T02:19:16.945Z,99086.91
2018-09-24T02:21:46.423Z,99085.03
2018-09-24T02:24:16.010Z,99086.59
2018-09-24T02:26:45.169Z,99088.13
2018-09-24T02:29:14.306Z,99090.96
2018-09-24T02:31:44.531Z,99095.80
2018-09-24T02:34:13.683Z,99097.95
2018-09-24T02:36:42.998Z,99104.23
2018-09-24T02:39:12.616Z,99107.73
2018-09-24T02:41:42.358Z,99107.31
2018-09-24T02:44:11.698Z,99109.34
2018-09-24T02:46:44.701Z,99103.98
2018-09-24T02:49:13.945Z,99122.55
2018-09-24T02:51:44.674Z,99123.53
2018-09-24T02:54:13.825Z,99128.38
2018-09-24T02:56:47.141Z,99129.78
2018-09-24T02:59:16.354Z,99136.50
2018-09-24T03:01:45.600Z,99136.59
2018-09-24T03:04:14.830Z,99141.66
2018-09-24T03:06:44.639Z,99141.09
2018-09-24T03:09:16.520Z,99147.44
2018-09-24T03:11:46.126Z,99155.70
2018-09-24T03:14:19.769Z,99157.45
2018-09-24T03:16:48.949Z,99172.28
2018-09-24T03:19:18.153Z,99172.18
2018-09-24T03:21:47.430Z,99165.08
2018-09-24T03:24:16.569Z,99171.29
2018-09-24T03:26:45.718Z,99176.73
2018-09-24T03:29:22.069Z,99188.76
2018-09-24T03:31:51.321Z,99188.34
2018-09-24T03:34:21.206Z,99195.85
2018-09-24T03:36:50.713Z,99194.30
2018-09-24T03:39:19.911Z,99197.62
2018-09-24T03:41:49.122Z,99195.28
2018-09-24T03:44:18.418Z,99203.97
2018-09-24T03:46:48.438Z,99205.08
2018-09-24T03:49:17.727Z,99201.36
2018-09-24T03:51:47.378Z,99208.45
2018-09-24T03:54:17.070Z,99213.16
2018-09-24T03:56:48.909Z,99215.03
2018-09-24T03:59:18.031Z,99218.62
2018-09-24T04:01:47.150Z,99222.84
2018-09-24T04:04:21.662Z,99230.42
2018-09-24T04:06:55.950Z,99237.75
2018-09-24T04:09:30.279Z,99235.78
2018-09-24T04:12:04.582Z,99247.48
2018-09-24T04:14:38.911Z,99252.31
2018-09-24T04:17:13.622Z,99256.88
2018-09-24T04:19:48.050Z,99256.46
2018-09-24T04:22:23.502Z,99267.02
2018-09-24T04:24:58.698Z,99266.88
2018-09-24T04:27:33.414Z,99270.90
2018-09-24T04:30:08.543Z,99276.05
2018-09-24T04:32:43.078Z,99277.89
2018-09-24T04:35:17.426Z,99286.00
2018-09-24T04:37:51.822Z,99291.59
2018-09-24T04:40:26.281Z,99296.42
2018-09-24T04:43:00.707Z,99298.88
2018-09-24T04:45:37.161Z,99310.55
2018-09-24T04:48:11.795Z,99312.62
2018-09-24T04:50:46.669Z,99322.09
2018-09-24T04:53:21.118Z,99323.91
2018-09-24T04:55:55.434Z,99323.23
2018-09-24T04:58:29.863Z,99328.02
2018-09-24T05:01:04.195Z,99333.63
2018-09-24T05:03:39.067Z,99327.09
2018-09-24T05:06:13.453Z,99332.28
2018-09-24T05:08:52.300Z,99334.31
2018-09-24T05:11:27.674Z,99340.44
2018-09-24T05:14:02.699Z,99341.64
2018-09-24T05:16:40.298Z,99350.11
2018-09-24T05:19:17.997Z,99347.41
2018-09-24T05:21:53.683Z,99356.43
2018-09-24T05:24:29.510Z,99368.09
2018-09-24T05:27:03.974Z,99374.70
2018-09-24T05:29:38.441Z,99381.50
2018-09-24T05:32:15.754Z,99382.97
2018-09-24T05:34:50.314Z,99384.17
2018-09-24T05:37:25.235Z,99387.84
2018-09-24T05:39:59.550Z,99389.49
2018-09-24T05:42:34.044Z,99385.04
2018-09-24T05:45:10.291Z,99397.98
2018-09-24T05:47:45.059Z,99403.69
2018-09-24T05:50:20.150Z,99412.25
2018-09-24T05:52:54.454Z,99420.92
2018-09-24T05:55:28.858Z,99425.92
2018-09-24T05:58:03.169Z,99430.52
2018-09-24T06:00:37.582Z,99434.12
2018-09-24T06:03:18.718Z,99438.41
2018-09-24T06:05:53.140Z,99449.00
2018-09-24T06:08:27.934Z,99454.53
2018-09-24T06:11:02.357Z,99462.05
2018-09-24T06:13:36.778Z,99468.29
2018-09-24T06:16:11.358Z,99473.13
2018-09-24T06:18:45.785Z,99475.25
2018-09-24T06:21:20.558Z,99481.62
2018-09-24T06:23:54.917Z,99483.92
2018-09-24T06:26:29.982Z,99496.37
2018-09-24T06:29:06.066Z,99497.45
2018-09-24T06:31:40.486Z,99496.23
2018-09-24T06:34:14.950Z,99500.88
2018-09-24T06:36:49.255Z,99516.92
2018-09-24T06:39:23.609Z,99515.63
2018-09-24T06:41:57.925Z,99517.28
2018-09-24T06:44:32.266Z,99518.09
2018-09-24T06:47:06.918Z,99519.70
2018-09-24T06:49:41.331Z,99526.41
2018-09-24T06:52:15.545Z,99526.63
2018-09-24T06:54:50.099Z,99531.01
2018-09-24T06:57:24.478Z,99534.65
2018-09-24T06:59:58.921Z,99537.03
2018-09-24T07:02:33.289Z,99548.25
2018-09-24T07:05:08.626Z,99546.98
2018-09-24T07:07:42.966Z,99556.85
2018-09-24T07:10:17.266Z,99562.53
2018-09-24T07:12:52.102Z,99570.53
2018-09-24T07:15:26.393Z,99573.83
2018-09-24T07:18:01.356Z,99579.59
2018-09-24T07:20:36.310Z,99589.91
2018-09-24T07:23:11.080Z,99589.33
2018-09-24T07:25:45.402Z,99588.83
2018-09-24T07:28:20.279Z,99589.44
2018-09-24T07:30:54.730Z,99604.52
2018-09-24T07:33:29.264Z,99600.62
2018-09-24T07:36:03.702Z,99602.48
2018-09-24T07:38:39.561Z,99605.75
2018-09-24T07:41:13.886Z,99605.39
2018-09-24T07:43:48.198Z,99599.39
2018-09-24T07:46:24.214Z,99604.81
2018-09-24T07:49:00.019Z,99607.38
2018-09-24T07:51:34.437Z,99617.16
2018-09-24T07:54:08.823Z,99616.94
2018-09-24T07:56:43.158Z,99618.88
2018-09-24T07:59:17.530Z,99622.22
2018-09-24T08:01:55.954Z,99628.06
2018-09-24T08:04:30.774Z,99627.19
2018-09-24T08:07:05.119Z,99636.83
2018-09-24T08:09:39.490Z,99639.29
2018-09-24T08:12:13.944Z,99645.27
2018-09-24T08:14:48.405Z,99641.16
2018-09-24T08:17:23.222Z,99648.33
2018-09-24T08:19:57.646Z,99650.61
2018-09-24T08:22:32.094Z,99654.64
2018-09-24T08:25:06.545Z,99655.48
2018-09-24T08:27:40.961Z,99651.59
2018-09-24T08:30:15.429Z,99656.60
2018-09-24T08:32:49.902Z,99661.42
2018-09-24T08:35:24.226Z,99663.63
2018-09-24T08:37:58.651Z,99669.05
2018-09-24T08:40:33.004Z,99665.34
2018-09-24T08:43:07.297Z,99673.91
2018-09-24T08:45:41.614Z,99666.81
2018-09-24T08:48:15.929Z,99666.00
2018-09-24T08:50:51.057Z,99681.17
2018-09-24T08:53:25.381Z,99672.31
2018-09-24T08:56:00.235Z,99682.05
2018-09-24T08:58:34.662Z,99676.92
2018-09-24T09:01:09.078Z,99678.83
2018-09-24T09:03:43.392Z,99686.82
2018-09-24T09:06:17.821Z,99687.31
2018-09-24T09:08:52.106Z,99684.17
2018-09-24T09:11:27.170Z,99689.34
2018-09-24T09:14:01.603Z,99692.47
2018-09-24T09:16:36.831Z,99692.89
2018-09-24T09:19:11.219Z,99689.94
2018-09-24T09:21:46.234Z,99686.50
2018-09-24T09:24:20.910Z,99693.33
2018-09-24T09:26:55.999Z,99685.06
2018-09-24T09:29:30.517Z,99684.12
2018-09-24T09:32:04.854Z,99689.00
2018-09-24T09:34:39.158Z,99692.59
2018-09-24T09:37:14.474Z,99694.26
2018-09-24T09:39:48.954Z,99690.39
2018-09-24T09:42:23.868Z,99693.95
2018-09-24T09:44:58.218Z,99695.45
2018-09-24T09:47:32.909Z,99700.81
2018-09-24T09:50:08.034Z,99703.96
2018-09-24T09:52:42.431Z,99692.81
2018-09-24T09:55:16.945Z,99691.73
2018-09-24T09:57:51.349Z,99700.11
2018-09-24T10:00:25.685Z,99694.34
2018-09-24T10:03:00.237Z,99694.78
2018-09-24T10:05:34.542Z,99687.70
2018-09-24T10:08:09.869Z,99691.78
2018-09-24T10:10:44.241Z,99682.91
2018-09-24T10:13:18.562Z,99682.04
2018-09-24T10:15:53.013Z,99682.45
2018-09-24T10:18:27.551Z,99683.94
2018-09-24T10:21:01.873Z,99682.50
2018-09-24T10:23:36.207Z,99676.50
2018-09-24T10:26:10.697Z,99681.36
2018-09-24T10:28:45.309Z,99685.38
2018-09-24T10:31:19.605Z,99681.29
2018-09-24T10:33:53.914Z,99680.35
2018-09-24T10:36:28.197Z,99678.78
2018-09-24T10:39:02.505Z,99672.64
2018-09-24T10:41:36.838Z,99676.30
2018-09-24T10:44:11.345Z,99676.56
2018-09-24T10:46:45.621Z,99673.97
2018-09-24T10:49:20.230Z,99671.41
2018-09-24T10:51:54.611Z,99671.47
2018-09-24T10:54:30.275Z,99678.25
2018-09-24T10:57:04.822Z,99680.08
2018-09-24T10:59:39.566Z,99672.14
2018-09-24T11:02:13.949Z,99680.28
2018-09-24T11:04:49.506Z,99670.69
2018-09-24T11:07:24.538Z,99676.73
2018-09-24T11:09:58.925Z,99682.60
2018-09-24T11:12:33.354Z,99686.81
2018-09-24T11:15:07.806Z,99685.28
2018-09-24T11:17:43.925Z,99686.86
2018-09-24T11:20:19.045Z,99684.05
2018-09-24T11:22:53.503Z,99676.91
2018-09-24T11:25:27.985Z,99680.41
2018-09-24T11:28:02.917Z,99678.50
2018-09-24T11:30:37.370Z,99680.12
2018-09-24T11:33:12.507Z,99681.87
2018-09-24T11:35:46.846Z,99680.90
2018-09-24T11:38:21.138Z,99679.47
2018-09-24T11:40:55.613Z,99674.22
2018-09-24T11:43:30.030Z,99667.28
2018-09-24T11:46:04.402Z,99671.02
2018-09-24T11:48:38.814Z,99664.40
2018-09-24T11:51:13.338Z,99668.04
2018-09-24T11:53:48.058Z,99663.80
2018-09-24T11:56:22.417Z,99653.63
2018-09-24T11:58:56.910Z,99644.09
2018-09-24T12:01:31.178Z,99651.37
2018-09-24T12:04:05.502Z,99656.45
2018-09-24T12:06:39.796Z,99652.47
2018-09-24T12:09:15.185Z,99644.89
2018-09-24T12:11:49.709Z,99648.45
2018-09-24T12:14:24.199Z,99655.64
2018-09-24T12:16:58.686Z,99652.14
2018-09-24T12:19:33.017Z,99648.95
2018-09-24T12:22:07.450Z,99644.59
2018-09-24T12:24:41.942Z,99644.28
2018-09-24T12:27:16.393Z,99647.73
2018-09-24T12:29:50.787Z,99647.58
2018-09-24T12:32:25.212Z,99639.07
2018-09-24T12:34:59.641Z,99648.07
2018-09-24T12:37:34.120Z,99648.91
2018-09-24T12:40:08.491Z,99648.07
2018-09-24T12:42:42.793Z,99649.83
2018-09-24T12:45:17.582Z,99647.80
2018-09-24T12:47:52.025Z,99644.89
2018-09-24T12:50:26.650Z,99650.87
2018-09-24T12:53:00.946Z,99653.93
2018-09-24T12:55:35.406Z,99641.64
2018-09-24T12:58:10.334Z,99645.41
2018-09-24T13:00:45.090Z,99651.18
2018-09-24T13:03:20.290Z,99637.42
2018-09-24T13:05:54.726Z,99644.69
2018-09-24T13:08:29.326Z,99644.91
2018-09-24T13:11:04.922Z,99655.15
2018-09-24T13:13:39.362Z,99643.13
2018-09-24T13:16:13.665Z,99648.14
2018-09-24T13:18:47.953Z,99643.41
2018-09-24T13:21:22.810Z,99646.69
2018-09-24T13:23:57.089Z,99648.29
2018-09-24T13:26:33.238Z,99649.25
2018-09-24T13:29:07.665Z,99645.48
2018-09-24T13:31:42.250Z,99633.44
2018-09-24T13:34:16.598Z,99630.83
2018-09-24T13:36:50.949Z,99639.36
2018-09-24T13:39:25.283Z,99634.64
2018-09-24T13:42:00.081Z,99642.04
2018-09-24T13:44:34.393Z,99636.78
2018-09-24T13:47:08.755Z,99640.75
2018-09-24T13:49:43.155Z,99646.38
2018-09-24T13:52:17.653Z,99641.74
2018-09-24T13:54:52.113Z,99647.02
2018-09-24T13:57:26.953Z,99638.38
2018-09-24T14:00:01.798Z,99640.05
2018-09-24T14:02:36.997Z,99636.94
2018-09-24T14:05:11.800Z,99635.08
2018-09-24T14:07:46.299Z,99631.42
2018-09-24T14:10:20.876Z,99631.59
2018-09-24T14:12:55.946Z,99629.36
2018-09-24T14:15:30.413Z,99626.56
2018-09-24T14:18:04.782Z,99629.69
2018-09-24T14:20:39.174Z,99632.92
2018-09-24T14:23:13.785Z,99628.33
2018-09-24T14:25:48.230Z,99623.36
2018-09-24T14:28:22.526Z,99619.81
2018-09-24T14:30:56.874Z,99625.38
2018-09-24T14:33:31.339Z,99618.27
2018-09-24T14:36:05.854Z,99617.52
2018-09-24T14:38:40.126Z,99617.27
2018-09-24T14:41:14.595Z,99622.95
2018-09-24T14:43:48.914Z,99618.06
2018-09-24T14:46:23.513Z,99615.05
2018-09-24T14:48:57.922Z,99622.02
2018-09-24T14:51:32.287Z,99622.73
2018-09-24T14:54:06.605Z,99617.16
2018-09-24T14:56:41.241Z,99614.65
2018-09-24T14:59:15.994Z,99614.51
2018-09-24T15:01:50.696Z,99614.74
2018-09-24T15:04:26.442Z,99614.34
2018-09-24T15:07:01.238Z,99607.80
2018-09-24T15:09:37.810Z,99609.50
2018-09-24T15:12:12.703Z,99606.62
2018-09-24T15:14:47.468Z,99612.37
2018-09-24T15:17:21.758Z,99615.19
2018-09-24T15:19:56.174Z,99611.55
2018-09-24T15:25:35.450Z,99624.23
2018-09-24T15:28:10.376Z,99618.39
2018-09-24T15:30:44.694Z,99626.73
2018-09-24T15:33:19.224Z,99622.65
2018-09-24T15:35:54.323Z,99617.13
2018-09-24T15:38:29.400Z,99613.55
2018-09-24T15:41:03.766Z,99615.78
2018-09-24T15:43:38.070Z,99612.43
2018-09-24T15:46:12.965Z,99612.43
2018-09-24T15:48:47.366Z,99612.11
2018-09-24T15:51:21.772Z,99608.12
2018-09-24T15:53:56.163Z,99614.81
2018-09-24T15:56:30.047Z,99615.25
2018-09-24T15:59:04.569Z,99614.14
2018-09-24T16:01:39.045Z,99613.74
2018-09-24T16:04:13.813Z,99616.17
2018-09-24T16:06:51.129Z,99615.69
2018-09-24T16:09:25.512Z,99614.09
2018-09-24T16:11:59.765Z,99618.41
2018-09-24T16:14:35.052Z,99619.70
2018-09-24T16:17:10.177Z,99619.86
2018-09-24T16:19:44.843Z,99618.43
2018-09-24T16:22:19.120Z,99625.61
2018-09-24T16:24:53.442Z,99616.83
2018-09-24T16:27:29.394Z,99629.75
2018-09-24T16:30:04.135Z,99629.44
2018-09-24T16:32:39.910Z,99632.47
2018-09-24T16:35:15.450Z,99631.98
2018-09-24T16:37:49.931Z,99632.14
2018-09-24T16:40:24.410Z,99631.17
2018-09-24T16:42:59.098Z,99637.85
2018-09-24T16:45:33.905Z,99638.63
2018-09-24T16:48:08.839Z,99638.00
2018-09-24T16:50:43.193Z,99640.23
2018-09-24T16:53:17.541Z,99641.79
2018-09-24T16:55:51.941Z,99645.63
2018-09-24T16:58:26.506Z,99650.44
2018-09-24T17:01:01.423Z,99650.30
2018-09-24T17:03:35.970Z,99650.56
2018-09-24T17:06:10.582Z,99652.02
2018-09-24T17:08:44.877Z,99657.09
2018-09-24T17:11:21.594Z,99654.64
2018-09-24T17:13:55.947Z,99659.78
2018-09-24T17:16:30.248Z,99667.30
2018-09-24T17:19:05.132Z,99672.27
2018-09-24T17:21:39.430Z,99674.27
2018-09-24T17:24:13.802Z,99678.68
2018-09-24T17:26:48.934Z,99679.78
2018-09-24T17:29:23.720Z,99686.47
2018-09-24T17:31:58.054Z,99688.44
2018-09-24T17:34:35.070Z,99694.59
2018-09-24T17:37:11.294Z,99697.50
2018-09-24T17:39:45.862Z,99698.48
2018-09-24T17:42:20.441Z,99694.23
2018-09-24T17:44:54.985Z,99701.70
2018-09-24T17:47:29.893Z,99704.25
2018-09-24T17:50:04.080Z,99708.29
2018-09-24T17:52:38.729Z,99709.96
2018-09-24T17:55:13.506Z,99711.14
2018-09-24T17:57:48.697Z,99720.72
2018-09-24T18:00:23.189Z,99722.73
2018-09-24T18:02:58.452Z,99719.58
2018-09-24T18:05:32.872Z,99721.89
2018-09-24T18:08:08.850Z,99721.13
2018-09-24T18:10:42.829Z,99722.91
2018-09-24T18:13:18.370Z,99728.08
2018-09-24T18:15:52.677Z,99731.61
2018-09-24T18:18:29.013Z,99738.44
2018-09-24T18:21:03.413Z,99734.25
2018-09-24T18:23:38.497Z,99744.84
2018-09-24T18:26:13.373Z,99745.30
2018-09-24T18:28:47.841Z,99745.57
2018-09-24T18:31:22.234Z,99747.70
2018-09-24T18:33:56.695Z,99746.34
2018-09-24T18:36:31.290Z,99751.11
2018-09-24T18:39:06.602Z,99760.58
2018-09-24T18:41:40.961Z,99764.48
2018-09-24T18:44:17.679Z,99764.89
2018-09-24T18:46:53.678Z,99768.92
2018-09-24T18:49:29.789Z,99774.41
2018-09-24T18:52:04.571Z,99776.28
2018-09-24T18:54:40.785Z,99782.52
2018-09-24T18:57:16.767Z,99781.24
2018-09-24T18:59:51.496Z,99784.28
2018-09-24T19:02:27.454Z,99790.50
2018-09-24T19:05:01.874Z,99783.48
2018-09-24T19:07:36.258Z,99785.68
2018-09-24T19:10:12.142Z,99788.63
2018-09-24T19:12:46.591Z,99789.75
2018-09-24T19:15:23.181Z,99794.76
2018-09-24T19:17:57.743Z,99796.92
2018-09-24T19:20:32.804Z,99793.94
2018-09-24T19:23:08.538Z,99799.83
2018-09-24T19:25:43.081Z,99802.41
2018-09-24T19:28:18.994Z,99804.88
2018-09-24T19:30:54.365Z,99812.03
2018-09-24T19:33:29.380Z,99806.77
2018-09-24T19:36:03.736Z,99806.30
2018-09-24T19:38:39.156Z,99804.90
2018-09-24T19:41:13.427Z,99804.64
2018-09-24T19:43:47.480Z,99805.50
2018-09-24T19:46:21.765Z,99810.45
2018-09-24T19:48:57.625Z,99813.91
2018-09-24T19:51:32.757Z,99817.68
2018-09-24T19:54:07.274Z,99817.70
2018-09-24T19:56:41.869Z,99823.02
2018-09-24T19:59:17.472Z,99821.13
2018-09-24T20:01:52.449Z,99815.50
2018-09-24T20:04:28.423Z,99817.34
2018-09-24T20:07:04.656Z,99819.54
2018-09-24T20:09:39.337Z,99825.05
2018-09-24T20:12:14.970Z,99823.88
2018-09-24T20:14:51.645Z,99823.42
2018-09-24T20:17:26.032Z,99832.49
2018-09-24T20:20:00.423Z,99832.97
2018-09-24T20:22:35.311Z,99825.63
2018-09-24T20:25:10.575Z,99828.16
2018-09-24T20:27:45.058Z,99831.48
2018-09-24T20:30:19.441Z,99835.36
2018-09-24T20:32:54.174Z,99843.63
2018-09-24T20:35:28.746Z,99844.03
2018-09-24T20:38:04.337Z,99842.77
2018-09-24T20:40:39.117Z,99847.60
2018-09-24T20:43:13.949Z,99845.62
2018-09-24T20:45:48.775Z,99847.36
2018-09-24T20:48:23.579Z,99851.94
2018-09-24T20:50:58.674Z,99855.78
2018-09-24T20:53:33.241Z,99857.98
2018-09-24T20:56:07.768Z,99866.06
2018-09-24T20:58:43.361Z,99868.81
2018-09-24T21:01:18.605Z,99867.30
2018-09-24T21:03:53.660Z,99869.80
2018-09-24T21:06:28.114Z,99869.45
2018-09-24T21:09:04.875Z,99874.77
2018-09-24T21:11:40.589Z,99878.22
2018-09-24T21:14:15.251Z,99872.48
2018-09-24T21:16:49.687Z,99878.14
2018-09-24T21:19:28.989Z,99878.95
2018-09-24T21:22:03.773Z,99885.94
2018-09-24T21:24:38.686Z,99879.39
2018-09-24T21:27:15.314Z,99887.28
2018-09-24T21:29:50.830Z,99882.34
2018-09-24T21:32:25.622Z,99883.16
2018-09-24T21:35:00.378Z,99887.02
2018-09-24T21:37:35.312Z,99885.80
2018-09-24T21:40:11.426Z,99883.72
2018-09-24T21:42:46.472Z,99891.30
2018-09-24T21:45:20.982Z,99884.44
2018-09-24T21:47:55.425Z,99889.16
2018-09-24T21:50:30.269Z,99893.21
2018-09-24T21:53:05.041Z,99896.23
2018-09-24T21:55:39.873Z,99902.06
2018-09-24T21:58:14.785Z,99899.05
2018-09-24T22:00:49.277Z,99905.08
2018-09-24T22:03:23.796Z,99902.61
2018-09-24T22:05:59.123Z,99901.10
2018-09-24T22:08:33.418Z,99907.79
2018-09-24T22:11:07.727Z,99908.80
2018-09-24T22:13:42.062Z,99905.02
2018-09-24T22:16:16.900Z,99910.37
2018-09-24T22:18:51.345Z,99912.22
2018-09-24T22:21:25.833Z,99923.16
2018-09-24T22:24:00.338Z,99924.84
2018-09-24T22:26:34.638Z,99928.27
2018-09-24T22:29:11.324Z,99927.77
2018-09-24T22:31:45.650Z,99924.09
2018-09-24T22:34:20.258Z,99926.58
2018-09-24T22:36:54.609Z,99922.96
2018-09-24T22:39:29.117Z,99915.31
2018-09-24T22:42:03.479Z,99916.91
2018-09-24T22:44:38.345Z,99923.05
2018-09-24T22:47:12.666Z,99940.38
2018-09-24T22:49:47.142Z,99935.22
2018-09-24T22:52:21.489Z,99943.37
2018-09-24T22:54:56.000Z,99938.23
2018-09-24T22:57:37.686Z,99937.66
2018-09-24T23:00:12.030Z,99934.45
2018-09-24T23:02:46.317Z,99946.25
2018-09-24T23:05:20.793Z,99945.61
2018-09-24T23:07:55.109Z,99943.52
2018-09-24T23:10:29.522Z,99940.10
2018-09-24T23:13:04.151Z,99933.89
2018-09-24T23:15:38.502Z,99939.58
2018-09-24T23:18:12.835Z,99937.46
2018-09-24T23:20:47.205Z,99938.17
2018-09-24T23:23:21.489Z,99939.80
2018-09-24T23:25:55.810Z,99948.55
2018-09-24T23:28:30.838Z,99946.16
2018-09-24T23:31:05.170Z,99944.61
2018-09-24T23:33:39.698Z,99947.83
2018-09-24T23:36:14.814Z,99947.88
2018-09-24T23:38:51.858Z,99949.86
2018-09-24T23:41:26.635Z,99955.70
2018-09-24T23:44:01.446Z,99955.13
2018-09-24T23:46:35.746Z,99955.52
2018-09-24T23:49:10.129Z,99962.95
2018-09-24T23:51:44.438Z,99968.66
2018-09-24T23:54:18.842Z,99969.63
2018-09-24T23:56:53.134Z,99966.73
2018-09-24T23:59:27.586Z,99970.91
